Wednesday, January 17, 2018, 9:35 AM EST
Back to Local

K1P1, Plymouth, Plymouth Municipal Airport

Location: Plymouth, NH, United States Lat: 43.779
Local Time: 9:35 AM EST (14:35 GMT) Lon: -71.754
Time Zone: US/Eastern Elev: 505 ft

Show me the last for .
Show Decoded

2018-01-17 09:27 METAR K1P1 171435Z AUTO 00000KT 2 1/2SM -SN BKN024 BKN030 OVC055 M05/M06 A3031
                 RMK AO2 T10471057 =
2018-01-17 09:07 METAR K1P1 171415Z AUTO 00000KT 2SM -SN BKN015 OVC024 M05/M06 A3030 RMK AO2
                 T10461056 =
2018-01-17 08:55 METAR K1P1 171355Z AUTO 00000KT 1 1/2SM -SN OVC015 M05/M05 A3031 RMK AO2 P0001
                 T10481055 =
2018-01-17 08:26 METAR K1P1 171335Z AUTO 00000KT 2SM -SN BKN013 OVC021 M05/M06 A3031 RMK AO2
                 P0001 T10521060 =
2018-01-17 08:07 METAR K1P1 171315Z AUTO 00000KT 1SM -SN OVC011 M05/M06 A3032 RMK AO2 P0001
                 T10551060 =
2018-01-17 07:55 METAR K1P1 171255Z AUTO 00000KT 1 1/4SM -SN OVC008 M05/M06 A3032 RMK AO2
                 T10551061 =
2018-01-17 07:27 METAR K1P1 171235Z AUTO 00000KT 1 1/2SM -SN BKN008 BKN012 OVC018 M05/M06 A3032
                 RMK AO2 T10551060 =
2018-01-17 07:07 METAR K1P1 171215Z AUTO 00000KT 2 1/2SM -SN BKN018 BKN024 OVC031 M05/M06 A3033
                 RMK AO2 T10541059 =
2018-01-17 06:55 METAR K1P1 171155Z AUTO 00000KT 2SM -SN BKN014 OVC031 M06/M06 A3034 RMK AO2
                 P0001 60004 70006 T10561061 11056 21060 =
2018-01-17 06:27 METAR K1P1 171135Z AUTO 00000KT 1 1/4SM -SN OVC014 M06/M06 A3034 RMK AO2 P0001
                 T10561062 =
2018-01-17 06:06 METAR K1P1 171115Z AUTO 00000KT 1 1/4SM SN OVC012 M06/M06 A3034 RMK AO2
                 T10561062 =
2018-01-17 05:55 METAR K1P1 171055Z AUTO 00000KT 1SM SN OVC010 M06/M06 A3034 RMK AO2 P0001
                 T10561062 =
2018-01-17 05:27 METAR K1P1 171035Z AUTO 00000KT 1 1/4SM SN OVC008 M06/M06 A3034 RMK AO2 P0001
                 T10561062 =
2018-01-17 05:07 METAR K1P1 171015Z AUTO 00000KT 1 1/2SM -SN OVC008 M06/M06 A3034 RMK AO2
                 T10571063 =
2018-01-17 04:55 METAR K1P1 170955Z AUTO 00000KT 1 3/4SM -SN OVC011 M06/M06 A3034 RMK AO2 P0001
                 T10581065 =
2018-01-17 04:27 METAR K1P1 170935Z AUTO 00000KT 1 1/4SM -SN OVC013 M06/M06 A3034 RMK AO2
                 T10571062 =
2018-01-17 04:06 METAR K1P1 170915Z AUTO 00000KT 1 1/2SM -SN OVC015 M06/M06 A3034 RMK AO2
                 T10581065 =
2018-01-17 03:55 METAR K1P1 170855Z AUTO 00000KT 1 1/2SM -SN BKN017 OVC022 M06/M06 A3035 RMK AO2
                 60001 T10581064 =
2018-01-17 03:27 METAR K1P1 170835Z AUTO 00000KT 2SM -SN OVC012 M06/M06 A3035 RMK AO2 T10571063 =
2018-01-17 03:07 METAR K1P1 170815Z AUTO 00000KT 1 3/4SM -SN OVC012 M06/M06 A3036 RMK AO2
                 T10571063 =
2018-01-17 02:55 METAR K1P1 170755Z AUTO 00000KT 1 3/4SM -SN OVC012 M06/M06 A3036 RMK AO2 P0001
                 T10581064 =
2018-01-17 02:27 METAR K1P1 170735Z AUTO 00000KT 1 1/4SM -SN OVC012 M06/M06 A3036 RMK AO2 P0001
                 T10581065 =
2018-01-17 02:06 METAR K1P1 170715Z AUTO 00000KT 1 1/4SM -SN OVC012 M06/M06 A3036 RMK AO2
                 T10581065 =
2018-01-17 01:55 METAR K1P1 170655Z AUTO 00000KT 1SM SN OVC012 M06/M06 A3037 RMK AO2 T10581065 =
2018-01-17 01:28 METAR K1P1 170635Z AUTO 00000KT 1SM SN OVC012 M06/M06 A3037 RMK AO2 T10581065 =
2018-01-17 01:07 METAR K1P1 170615Z AUTO 00000KT 1 1/4SM SN OVC010 M06/M06 A3037 RMK AO2
                 T10581065 =
2018-01-17 00:55 METAR K1P1 170555Z AUTO 00000KT 1SM SN OVC010 M06/M06 A3037 RMK AO2 P0001 60002
                 T10601065 11059 21065 =
2018-01-17 00:26 METAR K1P1 170535Z AUTO 00000KT 1SM SN OVC010 M06/M07 A3038 RMK AO2 T10601066 =
2018-01-17 00:07 METAR K1P1 170515Z AUTO 00000KT 1SM SN OVC010 M06/M07 A3039 RMK AO2 T10591066 =
2018-01-16 23:55 METAR K1P1 170455Z AUTO 00000KT 1 1/4SM -SN OVC010 M06/M06 A3039 RMK AO2 P0001
                 T10601065 =
2018-01-16 23:27 METAR K1P1 170435Z AUTO 00000KT 1 1/4SM -SN OVC012 M06/M07 A3040 RMK AO2
                 T10601067 =
2018-01-16 23:07 METAR K1P1 170415Z AUTO 00000KT 1 3/4SM -SN OVC012 M06/M07 A3040 RMK AO2
                 T10611068 =
2018-01-16 22:55 METAR K1P1 170355Z AUTO 00000KT 1 1/2SM -SN OVC010 M06/M07 A3040 RMK AO2
                 T10601067 410391158 =
2018-01-16 22:27 METAR K1P1 170335Z AUTO 00000KT 1 1/4SM -SN OVC010 M06/M07 A3041 RMK AO2
                 T10601067 =
2018-01-16 22:07 METAR K1P1 170315Z AUTO 00000KT 1 3/4SM -SN BKN010 OVC016 M06/M07 A3041 RMK AO2
                 T10611068 =
2018-01-16 21:55 METAR K1P1 170255Z AUTO 00000KT 3SM -SN BKN022 OVC029 M06/M07 A3041 RMK AO2
                 T10611069 =
2018-01-16 21:27 METAR K1P1 170235Z AUTO 00000KT 4SM -SN BKN031 OVC037 M06/M07 A3041 RMK AO2
                 T10621070 =
2018-01-16 21:07 METAR K1P1 170215Z AUTO 00000KT 5SM -SN BKN039 BKN048 OVC060 M06/M07 A3042 RMK
                 AO2 T10621070 =
2018-01-16 20:55 METAR K1P1 170155Z AUTO 00000KT 7SM -SN SCT047 OVC060 M06/M07 A3042 RMK AO2
                 T10631070 =
2018-01-16 20:27 METAR K1P1 170135Z AUTO 00000KT 4SM -SN SCT015 BKN024 OVC060 M06/M07 A3041 RMK
                 AO2 T10621070 =
2018-01-16 20:06 METAR K1P1 170115Z AUTO 00000KT 4SM -SN BKN024 BKN035 OVC044 M06/M07 A3042 RMK
                 AO2 T10611070 =
2018-01-16 19:55 METAR K1P1 170055Z AUTO 00000KT 7SM SCT040 BKN060 OVC075 M06/M07 A3042 RMK AO2
                 T10651071 =
2018-01-16 19:27 METAR K1P1 170035Z AUTO 00000KT 7SM SCT027 BKN065 OVC075 M06/M07 A3041 RMK AO2
                 T10621070 =
2018-01-16 19:07 METAR K1P1 170015Z AUTO 00000KT 5SM -SN SCT027 BKN049 OVC065 M06/M07 A3042 RMK
                 AO2 T10621070 =
2018-01-16 18:55 METAR K1P1 162355Z AUTO 00000KT 3SM -SN SCT029 BKN042 OVC080 M06/M07 A3042 RMK
                 AO2 T10611070 11039 21061 =
2018-01-16 18:27 METAR K1P1 162335Z AUTO 00000KT 5SM -SN BKN029 OVC034 M06/M07 A3043 RMK AO2
                 T10601070 =
2018-01-16 18:06 METAR K1P1 162315Z AUTO 00000KT 5SM -SN SCT023 OVC029 M05/M07 A3043 RMK AO2
                 T10551066 =
2018-01-16 17:55 METAR K1P1 162255Z AUTO 00000KT 5SM -SN BKN023 OVC030 M05/M07 A3042 RMK AO2
                 T10531066 =
2018-01-16 17:27 METAR K1P1 162235Z AUTO 00000KT 5SM -SN OVC028 M05/M07 A3042 RMK AO2 T10511067 =
2018-01-16 17:06 METAR K1P1 162215Z AUTO 00000KT 4SM -SN OVC027 M05/M07 A3042 RMK AO2 T10501068 =
2018-01-16 16:55 METAR K1P1 162155Z AUTO 00000KT 3SM -SN OVC023 M05/M07 A3042 RMK AO2 T10461070 =
2018-01-16 16:27 METAR K1P1 162135Z AUTO 00000KT 4SM -SN BKN021 OVC029 M04/M07 A3042 RMK AO2
                 T10451074 =
2018-01-16 16:07 METAR K1P1 162115Z AUTO 00000KT 7SM -SN BKN029 OVC035 M04/M08 A3042 RMK AO2
                 T10421076 =
2018-01-16 15:55 METAR K1P1 162055Z AUTO 00000KT 10SM -SN OVC026 M04/M07 A3041 RMK AO2 T10411075
                 =
2018-01-16 15:27 METAR K1P1 162035Z AUTO 00000KT 10SM -SN BKN026 OVC034 M04/M08 A3041 RMK AO2
                 T10401080 =
2018-01-16 15:07 METAR K1P1 162015Z AUTO 00000KT 10SM BKN028 OVC034 M04/M08 A3041 RMK AO2
                 T10391083 =
2018-01-16 14:55 METAR K1P1 161955Z AUTO 00000KT 10SM BKN028 BKN033 OVC041 M04/M09 A3041 RMK AO2
                 T10441086 =
2018-01-16 14:27 METAR K1P1 161935Z AUTO 00000KT 10SM SCT024 BKN048 OVC060 M04/M09 A3041 RMK AO2
                 T10451089 =
2018-01-16 14:06 METAR K1P1 161915Z AUTO 00000KT 10SM BKN024 OVC031 M05/M09 A3041 RMK AO2
                 T10471090 =
2018-01-16 13:55 METAR K1P1 161855Z AUTO 00000KT 10SM BKN024 OVC034 M05/M09 A3041 RMK AO2
                 T10471090 =
2018-01-16 13:27 METAR K1P1 161835Z AUTO 00000KT 10SM SCT026 BKN034 OVC040 M05/M10 A3041 RMK AO2
                 T10521096 =
2018-01-16 13:07 METAR K1P1 161815Z AUTO 00000KT 10SM OVC040 M05/M10 A3042 RMK AO2 T10521096 =
2018-01-16 12:55 METAR K1P1 161755Z AUTO 00000KT 10SM BKN036 OVC043 M05/M10 A3042 RMK AO2
                 T10521098 11051 21125 =
2018-01-16 12:27 METAR K1P1 161735Z AUTO 00000KT 10SM OVC036 M06/M10 A3043 RMK AO2 T10581098 =
2018-01-16 12:07 METAR K1P1 161715Z AUTO 00000KT 10SM OVC036 M06/M10 A3043 RMK AO2 T10641102 =
2018-01-16 11:55 METAR K1P1 161655Z AUTO 00000KT 10SM OVC036 M07/M10 A3045 RMK AO2 T10671104 =
2018-01-16 11:28 METAR K1P1 161635Z AUTO 00000KT 10SM OVC034 M07/M11 A3046 RMK AO2 T10701107 =
2018-01-16 11:06 METAR K1P1 161615Z AUTO 00000KT 10SM OVC034 M07/M10 A3048 RMK AO2 T10721105 =
2018-01-16 10:55 METAR K1P1 161555Z AUTO 00000KT 10SM SCT025 OVC034 M08/M11 A3049 RMK AO2
                 T10771106 =
2018-01-16 10:28 METAR K1P1 161535Z AUTO 00000KT 5SM -SN BKN025 OVC036 M08/M11 A3050 RMK AO2
                 T10811106 =
2018-01-16 10:08 METAR K1P1 161515Z AUTO 00000KT 7SM -SN SCT025 OVC036 M09/M11 A3050 RMK AO2
                 T10861110 =
2018-01-16 09:55 METAR K1P1 161455Z AUTO 00000KT 5SM -SN OVC036 M09/M11 A3049 RMK AO2 T10921115 =

Support USWX by starting your Amazon purchase here.